Time;durP1;ratioP1;P1;durP2;ratioP2;P2;SDS_P1;SDS_P2;PMS_P1;PMS_P2;Temp;Humidity;BMP_temperature;BMP_pressure;BME280_temperature;BME280_humidity;BME280_pressure;Samples;Min_cycle;Max_cycle;Signal;HPM_P1;HPM_P2
2023/01/13 00:01:58;;;;;;;;;;;9.80;99.90;;;;;;5142508;27;19907;-41
2023/01/13 00:04:23;;;;;;;;;;;9.70;99.90;;;;;;5157362;27;20405;-41
2023/01/13 00:06:48;;;;;;;;;;;9.70;99.90;;;;;;5157448;27;19907;-41
2023/01/13 00:09:14;;;;;;;;;;;9.70;99.90;;;;;;5156786;27;19959;-41
2023/01/13 00:11:39;;;;;;;;;;;9.70;99.90;;;;;;5157468;27;20270;-44
2023/01/13 00:14:05;;;;;;;;;;;9.70;99.90;;;;;;5157580;27;20031;-41
2023/01/13 00:16:30;;;;;;;;;;;9.60;99.90;;;;;;5156662;27;19978;-41
2023/01/13 00:18:56;;;;;;;;;;;9.60;99.90;;;;;;5157150;27;19953;-42
2023/01/13 00:21:23;;;;;;;;;;;9.50;99.90;;;;;;5157536;27;19911;-41
2023/01/13 00:23:48;;;;;;;;;;;9.50;99.90;;;;;;5136473;27;19914;-43
2023/01/13 00:26:18;;;;;;;;;;;9.50;99.90;;;;;;5136133;27;19919;-42
2023/01/13 00:28:44;;;;;;;;;;;9.40;99.90;;;;;;5134791;27;19990;-41
2023/01/13 00:31:10;;;;;;;;;;;9.40;99.90;;;;;;5136475;27;20006;-42
2023/01/13 00:33:36;;;;;;;;;;;9.30;99.90;;;;;;5131430;27;19907;-41
2023/01/13 00:36:02;;;;;;;;;;;9.40;99.90;;;;;;5114738;28;19927;-43
2023/01/13 00:38:29;;;;;;;;;;;9.30;99.90;;;;;;5115563;28;19908;-42
2023/01/13 00:40:59;;;;;;;;;;;9.30;99.90;;;;;;5127810;27;20323;-41
2023/01/13 00:43:25;;;;;;;;;;;9.20;99.90;;;;;;5135515;27;20366;-41
2023/01/13 00:45:51;;;;;;;;;;;9.20;99.90;;;;;;5135804;27;20278;-42
2023/01/13 00:48:18;;;;;;;;;;;9.20;99.90;;;;;;5135894;27;20004;-42
2023/01/13 00:50:43;;;;;;;;;;;9.10;99.90;;;;;;5115952;28;19908;-42
2023/01/13 00:53:09;;;;;;;;;;;9.10;99.90;;;;;;5143051;27;19907;-41
2023/01/13 00:55:34;;;;;;;;;;;9.10;99.90;;;;;;5156099;27;20361;-41
2023/01/13 00:58:02;;;;;;;;;;;9.00;99.90;;;;;;5155875;27;19907;-41
2023/01/13 01:00:31;;;;;;;;;;;9.00;99.90;;;;;;5156189;27;20272;-42
2023/01/13 01:02:56;;;;;;;;;;;8.90;99.90;;;;;;5156293;27;20385;-41
2023/01/13 01:05:22;;;;;;;;;;;8.90;99.90;;;;;;5155696;27;19908;-41
2023/01/13 01:07:47;;;;;;;;;;;8.90;99.90;;;;;;5156428;27;19911;-42
2023/01/13 01:10:13;;;;;;;;;;;8.90;99.90;;;;;;5156487;27;19913;-42
2023/01/13 01:12:39;;;;;;;;;;;8.90;99.90;;;;;;5155351;27;19911;-42
2023/01/13 01:15:06;;;;;;;;;;;8.90;99.90;;;;;;5156125;27;19922;-42
2023/01/13 01:17:32;;;;;;;;;;;8.90;99.90;;;;;;5156226;27;19918;-41
2023/01/13 01:19:57;;;;;;;;;;;8.90;99.90;;;;;;5155446;27;19954;-43
2023/01/13 01:22:23;;;;;;;;;;;8.90;99.90;;;;;;5148858;27;19951;-42
2023/01/13 01:24:48;;;;;;;;;;;9.00;99.90;;;;;;5134595;27;19911;-42
2023/01/13 01:27:14;;;;;;;;;;;9.00;99.90;;;;;;5120742;27;19916;-42
2023/01/13 01:29:39;;;;;;;;;;;9.00;99.90;;;;;;5114754;28;19918;-42
2023/01/13 01:32:05;;;;;;;;;;;9.00;99.90;;;;;;5113705;28;19912;-42
2023/01/13 01:34:30;;;;;;;;;;;9.00;99.90;;;;;;5114706;28;19915;-42
2023/01/13 01:36:56;;;;;;;;;;;9.00;99.90;;;;;;5114662;28;20400;-41
2023/01/13 01:39:21;;;;;;;;;;;9.10;99.90;;;;;;5113388;28;19912;-42
2023/01/13 01:44:41;;;;;;;;;;;9.10;99.90;;;;;;5082509;28;19908;-41
2023/01/13 01:47:08;;;;;;;;;;;9.10;99.90;;;;;;5113649;28;19908;-42
2023/01/13 01:49:35;;;;;;;;;;;9.00;99.90;;;;;;5114248;28;19907;-42
2023/01/13 01:52:03;;;;;;;;;;;9.00;99.90;;;;;;5120744;27;19953;-42
2023/01/13 01:54:37;;;;;;;;;;;9.00;99.90;;;;;;5133856;27;19919;-41
2023/01/13 01:57:03;;;;;;;;;;;8.90;99.90;;;;;;5134634;27;19916;-42
2023/01/13 01:59:30;;;;;;;;;;;8.90;99.90;;;;;;5134562;27;19908;-42
2023/01/13 02:01:55;;;;;;;;;;;8.90;99.90;;;;;;5133972;27;19998;-42
2023/01/13 02:04:32;;;;;;;;;;;8.80;99.90;;;;;;5134629;27;20003;-44
2023/01/13 02:06:59;;;;;;;;;;;8.80;99.90;;;;;;5133986;27;19907;-42
2023/01/13 02:09:25;;;;;;;;;;;8.80;99.90;;;;;;5134408;27;19908;-42
2023/01/13 02:14:35;;;;;;;;;;;8.70;99.90;;;;;;5133915;27;20384;-43
2023/01/13 02:17:19;;;;;;;;;;;8.70;99.90;;;;;;5134135;27;20002;-42
2023/01/13 02:19:47;;;;;;;;;;;8.70;99.90;;;;;;5134410;27;19907;-43
2023/01/13 02:22:15;;;;;;;;;;;8.70;99.90;;;;;;5141253;27;19919;-42
2023/01/13 02:24:53;;;;;;;;;;;8.70;99.90;;;;;;5154811;27;19911;-42
2023/01/13 02:27:26;;;;;;;;;;;8.70;99.90;;;;;;5154597;27;19907;-41
2023/01/13 02:32:59;;;;;;;;;;;8.70;99.90;;;;;;5132182;27;19913;-41
2023/01/13 02:35:43;;;;;;;;;;;8.70;99.90;;;;;;5112798;28;19923;-42
2023/01/13 02:38:09;;;;;;;;;;;8.70;99.90;;;;;;5113452;28;19959;-42
2023/01/13 02:40:47;;;;;;;;;;;8.70;99.90;;;;;;5113227;28;19907;-43
2023/01/13 02:46:13;;;;;;;;;;;8.60;99.90;;;;;;5113762;28;19961;-42
2023/01/13 02:48:40;;;;;;;;;;;8.50;99.90;;;;;;5131875;27;19943;-41
2023/01/13 02:51:12;;;;;;;;;;;8.40;99.90;;;;;;5132244;27;20508;-41
2023/01/13 02:53:39;;;;;;;;;;;8.40;99.90;;;;;;5133927;27;19950;-42
2023/01/13 02:56:05;;;;;;;;;;;8.40;99.90;;;;;;5133653;27;19926;-42
2023/01/13 02:58:31;;;;;;;;;;;8.40;99.90;;;;;;5132747;27;19907;-43
2023/01/13 03:00:56;;;;;;;;;;;8.40;99.90;;;;;;5134411;27;19960;-41
2023/01/13 03:03:22;;;;;;;;;;;8.40;99.90;;;;;;5128439;27;19919;-43
2023/01/13 03:05:50;;;;;;;;;;;8.30;99.90;;;;;;5113061;28;20216;-42
2023/01/13 03:08:20;;;;;;;;;;;8.30;99.90;;;;;;5112903;28;19914;-42
2023/01/13 03:10:51;;;;;;;;;;;8.40;99.90;;;;;;5135268;27;19908;-42
2023/01/13 03:13:20;;;;;;;;;;;8.40;99.90;;;;;;5154361;27;20002;-42
2023/01/13 03:15:54;;;;;;;;;;;8.40;99.90;;;;;;5154147;27;19959;-44
2023/01/13 03:18:19;;;;;;;;;;;8.40;99.90;;;;;;5153292;27;19907;-42
2023/01/13 03:21:02;;;;;;;;;;;8.40;99.90;;;;;;5154276;27;19959;-42
2023/01/13 03:23:30;;;;;;;;;;;8.40;99.90;;;;;;5133484;28;20002;-44
2023/01/13 03:26:18;;;;;;;;;;;8.40;99.90;;;;;;5132423;28;19908;-42
2023/01/13 03:28:47;;;;;;;;;;;8.40;99.90;;;;;;5133565;28;19953;-42
2023/01/13 03:31:17;;;;;;;;;;;8.30;99.90;;;;;;5133502;28;20002;-42
2023/01/13 03:33:44;;;;;;;;;;;8.30;99.90;;;;;;5132584;28;19914;-42
2023/01/13 03:36:12;;;;;;;;;;;8.40;99.90;;;;;;5133139;28;19988;-42
2023/01/13 03:38:43;;;;;;;;;;;8.40;99.90;;;;;;5132611;28;20377;-43
2023/01/13 03:41:12;;;;;;;;;;;8.30;99.90;;;;;;5133243;28;19994;-43
2023/01/13 03:46:31;;;;;;;;;;;8.40;99.90;;;;;;5132928;28;19915;-42
2023/01/13 03:48:58;;;;;;;;;;;8.40;99.90;;;;;;5133229;28;19907;-42
2023/01/13 03:51:25;;;;;;;;;;;8.40;99.90;;;;;;5138593;27;20361;-42
2023/01/13 03:53:56;;;;;;;;;;;8.40;99.90;;;;;;5152717;27;19911;-44
2023/01/13 03:56:25;;;;;;;;;;;8.50;99.90;;;;;;5153907;27;20019;-42
2023/01/13 03:58:51;;;;;;;;;;;8.50;99.90;;;;;;5153917;27;19907;-42
2023/01/13 04:01:23;;;;;;;;;;;8.50;99.90;;;;;;5153730;27;19907;-42
2023/01/13 04:03:48;;;;;;;;;;;8.50;99.90;;;;;;5157651;27;19911;-43
2023/01/13 04:06:32;;;;;;;;;;;8.50;99.90;;;;;;5157704;27;19911;-43
2023/01/13 04:09:05;;;;;;;;;;;8.50;99.90;;;;;;5157205;27;19907;-43
2023/01/13 04:11:39;;;;;;;;;;;8.50;99.90;;;;;;5157460;27;19959;-43
2023/01/13 04:14:06;;;;;;;;;;;8.50;99.90;;;;;;5156807;27;19911;-43
2023/01/13 04:16:32;;;;;;;;;;;8.50;99.90;;;;;;5145303;27;20339;-43
2023/01/13 04:18:57;;;;;;;;;;;8.50;99.90;;;;;;5136398;27;19907;-44
2023/01/13 04:21:23;;;;;;;;;;;8.50;99.90;;;;;;5140867;27;19970;-43
2023/01/13 04:23:50;;;;;;;;;;;8.50;99.90;;;;;;5157383;27;19907;-43
2023/01/13 04:26:16;;;;;;;;;;;8.50;99.90;;;;;;5157437;27;19908;-44
2023/01/13 04:28:41;;;;;;;;;;;8.60;99.90;;;;;;5156173;27;19918;-44
2023/01/13 04:31:07;;;;;;;;;;;8.60;99.90;;;;;;5156736;27;19911;-44
2023/01/13 04:33:33;;;;;;;;;;;8.60;99.90;;;;;;5157278;27;19914;-43
2023/01/13 04:35:58;;;;;;;;;;;8.60;99.90;;;;;;5156210;27;19922;-43
2023/01/13 04:38:23;;;;;;;;;;;8.60;99.90;;;;;;5156866;27;20372;-46
2023/01/13 04:40:49;;;;;;;;;;;8.60;99.90;;;;;;5156999;27;19914;-42
2023/01/13 04:43:15;;;;;;;;;;;8.60;99.90;;;;;;5144342;27;19911;-42
2023/01/13 04:45:41;;;;;;;;;;;8.60;99.90;;;;;;5136052;27;19907;-43
2023/01/13 04:48:06;;;;;;;;;;;8.60;99.90;;;;;;5135980;27;19939;-42
2023/01/13 04:50:32;;;;;;;;;;;8.60;99.90;;;;;;5135681;27;20023;-43
2023/01/13 04:52:59;;;;;;;;;;;8.60;99.90;;;;;;5135987;27;20388;-43
2023/01/13 04:55:24;;;;;;;;;;;8.50;99.90;;;;;;5135532;27;19930;-43
2023/01/13 04:57:50;;;;;;;;;;;8.50;99.90;;;;;;5134985;27;19908;-42
2023/01/13 05:00:17;;;;;;;;;;;8.50;99.90;;;;;;5135922;27;20381;-42
2023/01/13 05:02:42;;;;;;;;;;;8.50;99.90;;;;;;5135869;27;19919;-42
2023/01/13 05:05:08;;;;;;;;;;;8.50;99.90;;;;;;5135251;27;19911;-43
2023/01/13 05:07:33;;;;;;;;;;;8.40;99.90;;;;;;5135685;27;19915;-44
2023/01/13 05:09:59;;;;;;;;;;;8.40;99.90;;;;;;5135144;27;19942;-42
2023/01/13 05:17:54;;;;;;;;;;;8.50;99.90;;;;;;5155897;27;19957;-42
2023/01/13 05:20:20;;;;;;;;;;;8.50;99.90;;;;;;5156460;27;19947;-42
2023/01/13 05:25:30;;;;;;;;;;;8.50;99.90;;;;;;5155401;27;19914;-43
2023/01/13 05:27:57;;;;;;;;;;;8.50;99.90;;;;;;5156107;27;19998;-42
2023/01/13 05:30:26;;;;;;;;;;;8.50;99.90;;;;;;5156047;27;19958;-43
2023/01/13 05:32:52;;;;;;;;;;;8.50;99.90;;;;;;5154937;27;19911;-44
2023/01/13 05:35:18;;;;;;;;;;;8.50;99.90;;;;;;5155898;27;19938;-43
2023/01/13 05:37:43;;;;;;;;;;;8.50;99.90;;;;;;5156036;27;19965;-43
2023/01/13 05:43:20;;;;;;;;;;;8.40;99.90;;;;;;5149282;27;19918;-44
2023/01/13 05:45:47;;;;;;;;;;;8.30;99.90;;;;;;5134274;27;19907;-43
2023/01/13 05:48:13;;;;;;;;;;;8.30;99.90;;;;;;5134836;27;20001;-42
2023/01/13 05:50:39;;;;;;;;;;;8.20;99.90;;;;;;5134729;27;19954;-43
2023/01/13 05:53:04;;;;;;;;;;;8.30;99.90;;;;;;5134016;27;19908;-43
2023/01/13 05:55:30;;;;;;;;;;;8.30;99.90;;;;;;5134478;27;19919;-43
2023/01/13 05:57:55;;;;;;;;;;;8.30;99.90;;;;;;5134515;27;19907;-43
2023/01/13 06:00:21;;;;;;;;;;;8.30;99.90;;;;;;5133933;27;19960;-45
2023/01/13 06:02:46;;;;;;;;;;;8.30;99.90;;;;;;5141534;27;19911;-44
2023/01/13 06:05:12;;;;;;;;;;;8.40;99.90;;;;;;5155359;27;20277;-42
2023/01/13 06:07:37;;;;;;;;;;;8.30;99.90;;;;;;5154212;27;19911;-42
2023/01/13 06:10:03;;;;;;;;;;;8.50;99.90;;;;;;5155213;27;19908;-43
2023/01/13 06:12:28;;;;;;;;;;;8.50;99.90;;;;;;5155297;27;20280;-44
2023/01/13 06:14:54;;;;;;;;;;;8.50;99.90;;;;;;5154373;27;19908;-42
2023/01/13 06:17:19;;;;;;;;;;;8.50;99.90;;;;;;5154909;27;19914;-44
2023/01/13 06:19:45;;;;;;;;;;;8.50;99.90;;;;;;5137211;27;19922;-43
2023/01/13 06:22:13;;;;;;;;;;;8.50;99.90;;;;;;5137362;27;19911;-44
2023/01/13 06:24:39;;;;;;;;;;;8.50;99.90;;;;;;5154150;27;19907;-42
2023/01/13 06:27:06;;;;;;;;;;;8.50;99.90;;;;;;5154628;27;19907;-44
2023/01/13 06:29:32;;;;;;;;;;;8.50;99.90;;;;;;5154250;27;19911;-43
2023/01/13 06:31:58;;;;;;;;;;;8.50;99.90;;;;;;5152520;27;19956;-42
2023/01/13 06:34:23;;;;;;;;;;;8.50;99.90;;;;;;5139705;27;19915;-43
2023/01/13 06:36:51;;;;;;;;;;;8.60;99.90;;;;;;5133882;27;19961;-42
2023/01/13 06:39:17;;;;;;;;;;;8.60;99.90;;;;;;5134001;27;19995;-42
2023/01/13 06:44:27;;;;;;;;;;;8.60;99.90;;;;;;5134329;27;19914;-42
2023/01/13 06:46:53;;;;;;;;;;;8.60;99.90;;;;;;5133787;27;20281;-44
2023/01/13 06:49:18;;;;;;;;;;;8.60;99.90;;;;;;5133101;27;19908;-44
2023/01/13 06:51:45;;;;;;;;;;;8.60;99.90;;;;;;5147625;27;20375;-46
2023/01/13 06:54:10;;;;;;;;;;;8.60;99.90;;;;;;5154277;27;19919;-43
2023/01/13 06:56:36;;;;;;;;;;;8.60;99.90;;;;;;5153589;27;20021;-44
2023/01/13 06:59:01;;;;;;;;;;;8.60;99.90;;;;;;5154043;27;19915;-43
2023/01/13 07:01:27;;;;;;;;;;;8.70;99.90;;;;;;5154506;27;19911;-45
2023/01/13 07:03:52;;;;;;;;;;;8.60;99.90;;;;;;5143513;27;19908;-43
2023/01/13 07:06:18;;;;;;;;;;;8.60;99.90;;;;;;5133550;27;20429;-43
2023/01/13 07:08:43;;;;;;;;;;;8.70;99.90;;;;;;5133536;28;19915;-43
2023/01/13 07:11:09;;;;;;;;;;;8.60;99.90;;;;;;5132811;28;19907;-43
2023/01/13 07:16:18;;;;;;;;;;;8.70;99.90;;;;;;5154053;27;19975;-43
2023/01/13 07:18:43;;;;;;;;;;;8.60;99.90;;;;;;5153577;27;19998;-42
2023/01/13 07:21:11;;;;;;;;;;;8.60;99.90;;;;;;5153605;27;19934;-42
2023/01/13 07:23:40;;;;;;;;;;;8.60;99.90;;;;;;5131694;27;19912;-44
2023/01/13 07:26:06;;;;;;;;;;;8.60;99.90;;;;;;5127653;28;19918;-43
2023/01/13 07:28:32;;;;;;;;;;;8.60;99.90;;;;;;5125993;28;19967;-42
2023/01/13 07:30:58;;;;;;;;;;;8.60;99.90;;;;;;5124702;28;19954;-42
2023/01/13 07:33:23;;;;;;;;;;;8.60;99.90;;;;;;5130841;28;20391;-44
2023/01/13 07:35:56;;;;;;;;;;;8.60;99.90;;;;;;5131669;27;19959;-43
2023/01/13 07:38:22;;;;;;;;;;;8.60;99.90;;;;;;5135979;27;19919;-43
2023/01/13 07:40:47;;;;;;;;;;;8.50;99.90;;;;;;5138160;27;19933;-42
2023/01/13 07:43:31;;;;;;;;;;;8.50;99.90;;;;;;5130533;27;19919;-42
2023/01/13 07:45:57;;;;;;;;;;;8.40;99.90;;;;;;5132314;27;20425;-42
2023/01/13 07:48:23;;;;;;;;;;;8.30;99.90;;;;;;5135182;27;20282;-43
2023/01/13 07:50:49;;;;;;;;;;;8.30;99.90;;;;;;5136319;27;19916;-42
2023/01/13 07:53:14;;;;;;;;;;;8.20;99.90;;;;;;5136465;27;19960;-41
2023/01/13 07:55:41;;;;;;;;;;;8.10;99.90;;;;;;5143073;27;19938;-41
2023/01/13 07:58:08;;;;;;;;;;;8.00;99.90;;;;;;5140333;27;19915;-40
2023/01/13 08:00:34;;;;;;;;;;;8.00;99.90;;;;;;5137776;27;20010;-40
2023/01/13 08:02:59;;;;;;;;;;;7.90;99.90;;;;;;5157423;27;19995;-41
2023/01/13 08:05:25;;;;;;;;;;;7.80;99.90;;;;;;5157564;27;19907;-41
2023/01/13 08:07:50;;;;;;;;;;;7.70;99.90;;;;;;5156685;27;19918;-42
2023/01/13 08:10:16;;;;;;;;;;;7.70;99.90;;;;;;5150358;27;19919;-41
2023/01/13 08:15:25;;;;;;;;;;;7.60;99.90;;;;;;5136698;27;19918;-40
2023/01/13 08:17:51;;;;;;;;;;;7.60;99.90;;;;;;5136599;27;19908;-40
2023/01/13 08:20:17;;;;;;;;;;;7.60;99.90;;;;;;5135699;27;20376;-41
2023/01/13 08:22:43;;;;;;;;;;;7.60;99.90;;;;;;5136443;27;19907;-41
2023/01/13 08:25:08;;;;;;;;;;;7.60;99.90;;;;;;5136297;27;19968;-41
2023/01/13 08:27:34;;;;;;;;;;;7.60;99.90;;;;;;5135731;27;19907;-41
2023/01/13 08:29:59;;;;;;;;;;;7.60;99.90;;;;;;5136241;27;20285;-40
2023/01/13 08:32:25;;;;;;;;;;;7.60;99.90;;;;;;5136288;27;20350;-40
2023/01/13 08:34:50;;;;;;;;;;;7.60;99.90;;;;;;5135512;27;20255;-41
2023/01/13 08:37:16;;;;;;;;;;;7.60;99.90;;;;;;5136147;27;19923;-40
2023/01/13 08:39:41;;;;;;;;;;;7.60;99.90;;;;;;5136364;27;19907;-40
2023/01/13 08:42:07;;;;;;;;;;;7.60;99.90;;;;;;5135355;27;19914;-41
2023/01/13 08:44:32;;;;;;;;;;;7.60;99.90;;;;;;5135844;27;19941;-40
2023/01/13 08:46:57;;;;;;;;;;;7.60;99.90;;;;;;5135901;27;20142;-39
2023/01/13 08:49:23;;;;;;;;;;;7.70;99.90;;;;;;5134239;27;19961;-40
2023/01/13 08:51:49;;;;;;;;;;;7.60;99.90;;;;;;5135804;27;19908;-39
2023/01/13 08:54:16;;;;;;;;;;;7.60;99.90;;;;;;5135449;27;19923;-39
2023/01/13 08:56:42;;;;;;;;;;;7.60;99.90;;;;;;5134716;27;19938;-39
2023/01/13 08:59:17;;;;;;;;;;;7.70;99.90;;;;;;5134995;27;21276;-40
2023/01/13 09:01:42;;;;;;;;;;;7.70;99.90;;;;;;5118369;27;19932;-39
2023/01/13 09:04:26;;;;;;;;;;;7.60;99.90;;;;;;5123915;27;19961;-39
2023/01/13 09:06:52;;;;;;;;;;;7.60;99.90;;;;;;5106056;27;20185;-39
2023/01/13 09:09:18;;;;;;;;;;;7.60;99.90;;;;;;5120097;27;19912;-40
2023/01/13 09:14:30;;;;;;;;;;;7.70;99.90;;;;;;5094898;28;20023;-40
2023/01/13 09:16:56;;;;;;;;;;;7.70;99.90;;;;;;5093548;28;19920;-39
2023/01/13 09:19:22;;;;;;;;;;;7.70;99.90;;;;;;5094483;28;19973;-40
2023/01/13 09:21:47;;;;;;;;;;;7.80;99.90;;;;;;5094512;28;19908;-40
2023/01/13 09:24:13;;;;;;;;;;;7.80;99.90;;;;;;5097576;27;20014;-41
2023/01/13 09:26:38;;;;;;;;;;;7.80;99.90;;;;;;5135346;27;19907;-41
2023/01/13 09:29:04;;;;;;;;;;;7.80;99.90;;;;;;5135069;27;19943;-40
2023/01/13 09:31:33;;;;;;;;;;;7.80;99.90;;;;;;5115491;27;19911;-39
2023/01/13 09:36:46;;;;;;;;;;;7.90;99.90;;;;;;5100109;28;20038;-39
2023/01/13 09:39:12;;;;;;;;;;;8.00;99.90;;;;;;5102253;28;20473;-39
2023/01/13 09:44:49;;;;;;;;;;;8.00;99.90;;;;;;5093841;28;19993;-40
2023/01/13 09:47:29;;;;;;;;;;;8.00;99.90;;;;;;5094030;28;19940;-40
2023/01/13 09:50:15;;;;;;;;;;;8.00;99.90;;;;;;5098318;28;19912;-39
2023/01/13 09:52:41;;;;;;;;;;;8.00;99.90;;;;;;5104815;28;20359;-39
2023/01/13 09:55:13;;;;;;;;;;;8.00;99.90;;;;;;5093540;28;19934;-39
2023/01/13 09:57:38;;;;;;;;;;;8.00;99.90;;;;;;5094105;28;19916;-38
2023/01/13 10:00:33;;;;;;;;;;;8.00;99.90;;;;;;5099527;28;20343;-39
2023/01/13 10:03:07;;;;;;;;;;;8.00;99.90;;;;;;5032998;28;19914;-39
2023/01/13 10:05:35;;;;;;;;;;;7.90;99.90;;;;;;5092817;28;19912;-39
2023/01/13 10:08:04;;;;;;;;;;;7.90;99.90;;;;;;5093435;28;19908;-39
2023/01/13 10:10:40;;;;;;;;;;;7.90;99.90;;;;;;5094263;28;20364;-41
2023/01/13 10:13:19;;;;;;;;;;;7.90;99.90;;;;;;5092277;28;19947;-40
2023/01/13 10:16:08;;;;;;;;;;;7.90;99.90;;;;;;5099574;28;19973;-40
2023/01/13 10:18:55;;;;;;;;;;;7.90;99.90;;;;;;5098025;28;19915;-39
2023/01/13 10:21:42;;;;;;;;;;;7.90;99.90;;;;;;5110581;28;19914;-39
2023/01/13 10:24:17;;;;;;;;;;;7.90;99.90;;;;;;5092696;27;20279;-41
2023/01/13 10:26:55;;;;;;;;;;;7.90;99.90;;;;;;5090683;28;19931;-39
2023/01/13 10:29:25;;;;;;;;;;;8.00;99.90;;;;;;5091712;28;20174;-40
2023/01/13 10:31:51;;;;;;;;;;;7.90;99.90;;;;;;5110068;27;19911;-39
2023/01/13 10:34:16;;;;;;;;;;;7.90;99.90;;;;;;5131614;27;19914;-39
2023/01/13 10:36:59;;;;;;;;;;;7.90;99.90;;;;;;5132808;27;20294;-39
2023/01/13 10:39:25;;;;;;;;;;;7.90;99.90;;;;;;5134080;27;19913;-40
2023/01/13 10:42:04;;;;;;;;;;;8.00;99.90;;;;;;5125733;27;19998;-39
2023/01/13 10:44:29;;;;;;;;;;;8.00;99.90;;;;;;5113521;28;19951;-38
2023/01/13 10:46:56;;;;;;;;;;;8.00;99.90;;;;;;5113470;28;19979;-39
2023/01/13 10:49:25;;;;;;;;;;;8.00;99.90;;;;;;5112734;28;19923;-40
2023/01/13 10:51:51;;;;;;;;;;;8.00;99.90;;;;;;5124744;27;19912;-40
2023/01/13 10:54:23;;;;;;;;;;;8.00;99.90;;;;;;5138778;27;20452;-39
2023/01/13 10:57:09;;;;;;;;;;;8.00;99.90;;;;;;5153680;27;19919;-40
2023/01/13 10:59:34;;;;;;;;;;;8.00;99.90;;;;;;5147659;27;20038;-39
2023/01/13 11:02:14;;;;;;;;;;;7.90;99.90;;;;;;5132999;27;20189;-40
2023/01/13 11:04:42;;;;;;;;;;;8.00;99.90;;;;;;5133848;27;20414;-40
2023/01/13 11:07:20;;;;;;;;;;;8.00;99.90;;;;;;5133688;27;19911;-40
2023/01/13 11:09:46;;;;;;;;;;;8.00;99.90;;;;;;5140518;27;19961;-40
2023/01/13 11:12:33;;;;;;;;;;;7.90;99.90;;;;;;5153750;27;19964;-40
2023/01/13 11:15:04;;;;;;;;;;;8.00;99.90;;;;;;5154298;27;20081;-39
2023/01/13 11:17:33;;;;;;;;;;;7.90;99.90;;;;;;5153436;27;19922;-39
2023/01/13 11:19:58;;;;;;;;;;;7.90;99.90;;;;;;5144428;27;19908;-39
2023/01/13 11:22:27;;;;;;;;;;;7.90;99.90;;;;;;5133681;28;19911;-39
2023/01/13 11:24:55;;;;;;;;;;;8.00;99.90;;;;;;5132824;28;19918;-41
2023/01/13 11:27:39;;;;;;;;;;;8.00;99.90;;;;;;5133592;28;19907;-44
2023/01/13 11:30:23;;;;;;;;;;;8.10;99.90;;;;;;5122082;27;19919;-42
2023/01/13 11:33:00;;;;;;;;;;;8.10;99.90;;;;;;5112684;28;19915;-41
2023/01/13 11:35:25;;;;;;;;;;;8.10;99.90;;;;;;5120529;28;19916;-41
2023/01/13 11:37:54;;;;;;;;;;;8.10;99.90;;;;;;5124264;28;19953;-42
2023/01/13 11:40:33;;;;;;;;;;;8.10;99.90;;;;;;5136237;27;20365;-41
2023/01/13 11:43:10;;;;;;;;;;;8.10;99.90;;;;;;5141693;27;19912;-42
2023/01/13 11:45:40;;;;;;;;;;;8.10;99.90;;;;;;5132496;28;19970;-42
2023/01/13 11:48:08;;;;;;;;;;;8.10;99.90;;;;;;5133778;27;19908;-43
2023/01/13 11:50:46;;;;;;;;;;;8.00;99.90;;;;;;5140285;27;20002;-42
2023/01/13 11:53:19;;;;;;;;;;;8.00;99.90;;;;;;5142300;27;19915;-42
2023/01/13 11:56:03;;;;;;;;;;;8.00;99.90;;;;;;5137653;27;20018;-42
2023/01/13 11:58:44;;;;;;;;;;;7.90;99.90;;;;;;5132056;28;19915;-41
2023/01/13 12:01:19;;;;;;;;;;;7.90;99.90;;;;;;5129131;28;20011;-42
2023/01/13 12:03:49;;;;;;;;;;;7.90;99.90;;;;;;5119691;28;19907;-42
2023/01/13 12:06:20;;;;;;;;;;;7.90;99.90;;;;;;5121422;28;19912;-41
2023/01/13 12:08:51;;;;;;;;;;;8.00;99.90;;;;;;5119473;28;20295;-42
2023/01/13 12:11:29;;;;;;;;;;;8.00;99.90;;;;;;5118642;27;19916;-43
2023/01/13 12:14:05;;;;;;;;;;;8.10;99.90;;;;;;5144532;27;19911;-42
2023/01/13 12:16:31;;;;;;;;;;;8.10;99.90;;;;;;5144265;27;19964;-43
2023/01/13 12:19:06;;;;;;;;;;;8.20;99.90;;;;;;5121049;27;19919;-44
2023/01/13 12:21:35;;;;;;;;;;;8.20;99.90;;;;;;5121395;28;19907;-42
2023/01/13 12:24:00;;;;;;;;;;;8.20;99.90;;;;;;5131101;27;19911;-42
2023/01/13 12:26:28;;;;;;;;;;;8.30;99.90;;;;;;5130136;27;19912;-42
2023/01/13 12:29:01;;;;;;;;;;;8.30;99.90;;;;;;5124751;27;19933;-42
2023/01/13 12:31:27;;;;;;;;;;;8.30;99.90;;;;;;5115826;28;19981;-42
2023/01/13 12:33:57;;;;;;;;;;;8.30;99.90;;;;;;5117340;27;20655;-41
2023/01/13 12:36:32;;;;;;;;;;;8.20;99.90;;;;;;5147565;27;19998;-40
2023/01/13 12:39:07;;;;;;;;;;;8.20;99.90;;;;;;5136198;27;19960;-41
2023/01/13 12:44:15;;;;;;;;;;;8.30;99.90;;;;;;5129170;27;19907;-43
2023/01/13 12:44:23;;;;;;;;;;;8.30;99.90;;;;;;5150467;27;19919;-41
2023/01/13 12:46:52;;;;;;;;;;;8.40;99.90;;;;;;5150622;27;20501;-41
2023/01/13 12:49:19;;;;;;;;;;;8.50;99.90;;;;;;5135061;27;19951;-40
2023/01/13 12:51:50;;;;;;;;;;;8.50;99.90;;;;;;5134643;27;19914;-40
2023/01/13 12:54:31;;;;;;;;;;;8.50;99.90;;;;;;5129144;27;19919;-40
2023/01/13 12:56:56;;;;;;;;;;;8.50;99.90;;;;;;5110884;28;19923;-41
2023/01/13 12:59:22;;;;;;;;;;;8.40;99.90;;;;;;5120130;27;19934;-41
2023/01/13 13:01:48;;;;;;;;;;;8.40;99.90;;;;;;5118209;27;19935;-42
2023/01/13 13:04:18;;;;;;;;;;;8.50;99.90;;;;;;5114539;28;20021;-42
2023/01/13 13:06:50;;;;;;;;;;;8.50;99.90;;;;;;5114447;28;19950;-42
2023/01/13 13:09:18;;;;;;;;;;;8.50;99.90;;;;;;5131751;27;20438;-42
2023/01/13 13:14:37;;;;;;;;;;;8.50;99.90;;;;;;5127412;27;19919;-42
2023/01/13 13:17:24;;;;;;;;;;;8.60;99.90;;;;;;5133920;27;19923;-41
2023/01/13 13:19:50;;;;;;;;;;;8.60;99.90;;;;;;5082948;27;19907;-42
2023/01/13 13:22:18;;;;;;;;;;;8.60;99.90;;;;;;5133895;27;19998;-41
2023/01/13 13:24:49;;;;;;;;;;;8.60;99.90;;;;;;5135184;27;19918;-42
2023/01/13 13:27:18;;;;;;;;;;;8.60;99.90;;;;;;5134306;27;19908;-42
2023/01/13 13:30:02;;;;;;;;;;;8.70;99.90;;;;;;5134072;27;19915;-42
2023/01/13 13:32:46;;;;;;;;;;;8.70;99.90;;;;;;5134404;27;19908;-42
2023/01/13 13:35:18;;;;;;;;;;;8.70;99.90;;;;;;5124097;27;19915;-42
2023/01/13 13:49:11;;;;;;;;;;;8.70;99.90;;;;;;5093323;28;20309;-41
2023/01/13 13:51:40;;;;;;;;;;;8.80;99.90;;;;;;5092526;28;19931;-41
2023/01/13 13:54:14;;;;;;;;;;;8.80;99.90;;;;;;5096799;27;19920;-42
2023/01/13 13:56:42;;;;;;;;;;;8.90;99.90;;;;;;5136430;27;20327;-41
2023/01/13 13:59:10;;;;;;;;;;;8.90;99.90;;;;;;5148484;27;19907;-41
2023/01/13 14:01:36;;;;;;;;;;;9.00;99.90;;;;;;5134118;27;19907;-41
2023/01/13 14:04:13;;;;;;;;;;;8.90;99.90;;;;;;5133907;27;19907;-42
2023/01/13 14:06:48;;;;;;;;;;;8.90;99.90;;;;;;5114462;27;19959;-41
2023/01/13 14:09:17;;;;;;;;;;;8.90;99.90;;;;;;5131050;27;19946;-45
2023/01/13 14:11:42;;;;;;;;;;;8.90;99.90;;;;;;5133173;27;19914;-40
2023/01/13 14:14:16;;;;;;;;;;;8.80;99.90;;;;;;5133435;27;19907;-40
2023/01/13 14:16:41;;;;;;;;;;;8.70;99.90;;;;;;5133508;27;20293;-41
2023/01/13 14:19:28;;;;;;;;;;;8.60;99.90;;;;;;5133476;27;19915;-40
2023/01/13 14:21:54;;;;;;;;;;;8.60;99.90;;;;;;5133832;27;19919;-40
2023/01/13 14:24:21;;;;;;;;;;;8.60;99.90;;;;;;5133554;27;19953;-41
2023/01/13 14:26:52;;;;;;;;;;;8.70;99.90;;;;;;5141345;27;19953;-40
2023/01/13 14:29:22;;;;;;;;;;;8.60;99.90;;;;;;5122483;27;19916;-39
2023/01/13 14:31:52;;;;;;;;;;;8.60;99.90;;;;;;5117165;27;19907;-40
2023/01/13 14:34:19;;;;;;;;;;;8.50;99.90;;;;;;5132213;27;19912;-40
2023/01/13 14:36:49;;;;;;;;;;;8.50;99.90;;;;;;5138031;27;19973;-40
2023/01/13 14:39:15;;;;;;;;;;;8.50;99.90;;;;;;5153683;27;19915;-39
2023/01/13 14:41:40;;;;;;;;;;;8.50;99.90;;;;;;5144042;27;19958;-41
2023/01/13 14:44:25;;;;;;;;;;;8.50;99.90;;;;;;5130822;27;19960;-39
2023/01/13 14:46:54;;;;;;;;;;;8.40;99.90;;;;;;5128395;27;19943;-40
2023/01/13 14:49:22;;;;;;;;;;;8.50;99.90;;;;;;5126885;27;20009;-40
2023/01/13 14:51:48;;;;;;;;;;;8.50;99.90;;;;;;5141666;27;20014;-40
2023/01/13 14:54:32;;;;;;;;;;;8.60;99.90;;;;;;5119293;27;20015;-40
2023/01/13 14:57:09;;;;;;;;;;;8.60;99.90;;;;;;5112549;27;19951;-41
2023/01/13 14:59:35;;;;;;;;;;;8.60;99.90;;;;;;5112954;28;20359;-42
2023/01/13 15:02:01;;;;;;;;;;;8.70;99.90;;;;;;5127677;27;19960;-40
2023/01/13 15:04:31;;;;;;;;;;;8.70;99.90;;;;;;5132721;27;19915;-39
2023/01/13 15:06:57;;;;;;;;;;;8.60;99.90;;;;;;5132976;27;19907;-39
2023/01/13 15:09:27;;;;;;;;;;;8.60;99.90;;;;;;5126504;27;20142;-42
2023/01/13 15:11:53;;;;;;;;;;;8.60;99.90;;;;;;5133113;28;20278;-41
2023/01/13 15:14:25;;;;;;;;;;;8.70;99.90;;;;;;5132720;28;19907;-43
2023/01/13 15:16:50;;;;;;;;;;;8.70;99.90;;;;;;5131488;28;20010;-40
2023/01/13 15:19:16;;;;;;;;;;;8.60;99.90;;;;;;5132690;28;20074;-40
2023/01/13 15:21:41;;;;;;;;;;;8.60;99.90;;;;;;5120313;28;19919;-41
2023/01/13 15:24:07;;;;;;;;;;;8.70;99.90;;;;;;5111406;28;19911;-41
2023/01/13 15:26:33;;;;;;;;;;;8.70;99.90;;;;;;5112591;28;19914;-41
2023/01/13 15:28:59;;;;;;;;;;;8.70;99.90;;;;;;5111922;28;19912;-42
2023/01/13 15:31:27;;;;;;;;;;;8.70;99.90;;;;;;5112151;28;19911;-42
2023/01/13 15:33:53;;;;;;;;;;;8.80;99.90;;;;;;5122267;28;20362;-42
2023/01/13 15:36:23;;;;;;;;;;;8.70;99.90;;;;;;5131659;28;19922;-42
2023/01/13 15:38:49;;;;;;;;;;;8.70;99.90;;;;;;5150612;27;19918;-42